Kuantan, Malaysia
Current Conditions -  °F | °C
As of 8:00 AM on Friday 19 Dec 2014 (Local Time) from WMKD Reporting Station
Light Rain Light Rain  
Wind Chill: 75°   Ceiling: 26000
Heat Index: 75°   Visibility: 5mi
Dew Point: 73°   Wind: 6mph
Humidity: 94%   Direction: 340°NNW
Pressure: 29.88"   Gusts: NA
Location:  3.82°N, 103.34°E
Report Text: WMKD 190000Z 34005KT 8000 -RA FEW004 SCT024 BKN260 24/23 Q1012 NOSIG
Loading
Personal Weather Stations






























Interactive Weather Map New forecast layout! Learn more

10-Day Weather Forecast

Advertisements
Track Severe Weather on mobile